sensor_id;sensor_type;location;lat;lon;timestamp;temperature;humidity
9437;DHT22;4757;59.334;18.034;2023-05-20T00:01:24;9.10;99.90
9437;DHT22;4757;59.334;18.034;2023-05-20T00:03:52;9.10;99.90
9437;DHT22;4757;59.334;18.034;2023-05-20T00:06:19;9.10;99.90
9437;DHT22;4757;59.334;18.034;2023-05-20T00:08:46;9.10;99.90
9437;DHT22;4757;59.334;18.034;2023-05-20T00:11:13;9.10;99.90
9437;DHT22;4757;59.334;18.034;2023-05-20T00:13:40;9.10;99.90
9437;DHT22;4757;59.334;18.034;2023-05-20T00:16:07;9.10;99.90
9437;DHT22;4757;59.334;18.034;2023-05-20T00:18:35;9.10;99.90
9437;DHT22;4757;59.334;18.034;2023-05-20T00:21:01;9.00;99.90
9437;DHT22;4757;59.334;18.034;2023-05-20T00:23:28;9.00;99.90
9437;DHT22;4757;59.334;18.034;2023-05-20T00:25:56;9.00;99.90
9437;DHT22;4757;59.334;18.034;2023-05-20T00:28:26;9.00;99.90
9437;DHT22;4757;59.334;18.034;2023-05-20T00:30:53;8.90;99.90
9437;DHT22;4757;59.334;18.034;2023-05-20T00:33:21;9.00;99.90
9437;DHT22;4757;59.334;18.034;2023-05-20T00:35:48;9.00;99.90
9437;DHT22;4757;59.334;18.034;2023-05-20T00:38:15;9.10;99.90
9437;DHT22;4757;59.334;18.034;2023-05-20T00:40:43;9.00;99.90
9437;DHT22;4757;59.334;18.034;2023-05-20T00:43:10;9.00;99.90
9437;DHT22;4757;59.334;18.034;2023-05-20T00:45:37;9.00;99.90
9437;DHT22;4757;59.334;18.034;2023-05-20T00:48:05;8.90;99.90
9437;DHT22;4757;59.334;18.034;2023-05-20T00:50:33;9.00;99.90
9437;DHT22;4757;59.334;18.034;2023-05-20T00:53:00;9.00;99.90
9437;DHT22;4757;59.334;18.034;2023-05-20T00:55:28;8.90;99.90
9437;DHT22;4757;59.334;18.034;2023-05-20T00:57:55;8.90;99.90
9437;DHT22;4757;59.334;18.034;2023-05-20T01:00:22;8.80;99.90
9437;DHT22;4757;59.334;18.034;2023-05-20T01:02:49;8.80;99.90
9437;DHT22;4757;59.334;18.034;2023-05-20T01:05:17;8.70;99.90
9437;DHT22;4757;59.334;18.034;2023-05-20T01:07:44;8.70;99.90
9437;DHT22;4757;59.334;18.034;2023-05-20T01:10:11;8.60;99.90
9437;DHT22;4757;59.334;18.034;2023-05-20T01:12:43;8.60;99.90
9437;DHT22;4757;59.334;18.034;2023-05-20T01:15:14;8.70;99.90
9437;DHT22;4757;59.334;18.034;2023-05-20T01:17:46;8.60;99.90
9437;DHT22;4757;59.334;18.034;2023-05-20T01:20:14;8.70;99.90
9437;DHT22;4757;59.334;18.034;2023-05-20T01:22:55;8.70;99.90
9437;DHT22;4757;59.334;18.034;2023-05-20T01:25:23;8.60;99.90
9437;DHT22;4757;59.334;18.034;2023-05-20T01:27:51;8.70;99.90
9437;DHT22;4757;59.334;18.034;2023-05-20T01:30:19;8.60;99.90
9437;DHT22;4757;59.334;18.034;2023-05-20T01:32:50;8.60;99.90
9437;DHT22;4757;59.334;18.034;2023-05-20T01:35:19;8.60;99.90
9437;DHT22;4757;59.334;18.034;2023-05-20T01:37:49;8.70;99.90
9437;DHT22;4757;59.334;18.034;2023-05-20T01:40:18;8.70;99.90
9437;DHT22;4757;59.334;18.034;2023-05-20T01:42:46;8.70;99.90
9437;DHT22;4757;59.334;18.034;2023-05-20T01:45:19;8.70;99.90
9437;DHT22;4757;59.334;18.034;2023-05-20T01:47:48;8.60;99.90
9437;DHT22;4757;59.334;18.034;2023-05-20T01:50:15;8.60;99.90
9437;DHT22;4757;59.334;18.034;2023-05-20T01:52:42;8.60;99.90
9437;DHT22;4757;59.334;18.034;2023-05-20T01:55:10;8.50;99.90
9437;DHT22;4757;59.334;18.034;2023-05-20T01:57:37;8.60;99.90
9437;DHT22;4757;59.334;18.034;2023-05-20T02:00:04;8.50;99.90
9437;DHT22;4757;59.334;18.034;2023-05-20T02:02:32;8.50;99.90
9437;DHT22;4757;59.334;18.034;2023-05-20T02:04:59;8.50;99.90
9437;DHT22;4757;59.334;18.034;2023-05-20T02:07:27;8.50;99.90
9437;DHT22;4757;59.334;18.034;2023-05-20T02:09:54;8.60;99.90
9437;DHT22;4757;59.334;18.034;2023-05-20T02:12:21;8.60;99.90
9437;DHT22;4757;59.334;18.034;2023-05-20T02:14:48;8.60;99.90
9437;DHT22;4757;59.334;18.034;2023-05-20T02:17:16;8.60;99.90
9437;DHT22;4757;59.334;18.034;2023-05-20T02:19:44;8.60;99.90
9437;DHT22;4757;59.334;18.034;2023-05-20T02:22:13;8.60;99.90
9437;DHT22;4757;59.334;18.034;2023-05-20T02:24:40;8.60;99.90
9437;DHT22;4757;59.334;18.034;2023-05-20T02:27:09;8.60;99.90
9437;DHT22;4757;59.334;18.034;2023-05-20T02:29:36;8.60;99.90
9437;DHT22;4757;59.334;18.034;2023-05-20T02:32:03;8.50;99.90
9437;DHT22;4757;59.334;18.034;2023-05-20T02:34:31;8.60;99.90
9437;DHT22;4757;59.334;18.034;2023-05-20T02:36:58;8.60;99.90
9437;DHT22;4757;59.334;18.034;2023-05-20T02:39:26;8.50;99.90
9437;DHT22;4757;59.334;18.034;2023-05-20T02:41:54;8.50;99.90
9437;DHT22;4757;59.334;18.034;2023-05-20T02:44:22;8.50;99.90
9437;DHT22;4757;59.334;18.034;2023-05-20T02:46:49;8.50;99.90
9437;DHT22;4757;59.334;18.034;2023-05-20T02:49:16;8.60;99.90
9437;DHT22;4757;59.334;18.034;2023-05-20T02:51:43;8.50;99.90
9437;DHT22;4757;59.334;18.034;2023-05-20T02:54:10;8.50;99.90
9437;DHT22;4757;59.334;18.034;2023-05-20T02:56:37;8.60;99.90
9437;DHT22;4757;59.334;18.034;2023-05-20T02:59:05;8.50;99.90
9437;DHT22;4757;59.334;18.034;2023-05-20T03:01:32;8.50;99.90
9437;DHT22;4757;59.334;18.034;2023-05-20T03:04:01;8.60;99.90
9437;DHT22;4757;59.334;18.034;2023-05-20T03:06:29;8.60;99.90
9437;DHT22;4757;59.334;18.034;2023-05-20T03:08:58;8.60;99.90
9437;DHT22;4757;59.334;18.034;2023-05-20T03:11:25;8.60;99.90
9437;DHT22;4757;59.334;18.034;2023-05-20T03:13:52;8.60;99.90
9437;DHT22;4757;59.334;18.034;2023-05-20T03:16:19;8.70;99.90
9437;DHT22;4757;59.334;18.034;2023-05-20T03:18:46;8.70;99.90
9437;DHT22;4757;59.334;18.034;2023-05-20T03:21:14;8.70;99.90
9437;DHT22;4757;59.334;18.034;2023-05-20T03:23:41;8.80;99.90
9437;DHT22;4757;59.334;18.034;2023-05-20T03:26:08;8.90;99.90
9437;DHT22;4757;59.334;18.034;2023-05-20T03:28:35;8.90;99.90
9437;DHT22;4757;59.334;18.034;2023-05-20T03:31:02;8.90;99.90
9437;DHT22;4757;59.334;18.034;2023-05-20T03:33:30;9.00;99.90
9437;DHT22;4757;59.334;18.034;2023-05-20T03:35:57;9.00;99.90
9437;DHT22;4757;59.334;18.034;2023-05-20T03:38:24;9.10;99.90
9437;DHT22;4757;59.334;18.034;2023-05-20T03:40:51;9.00;99.90
9437;DHT22;4757;59.334;18.034;2023-05-20T03:43:18;9.10;99.90
9437;DHT22;4757;59.334;18.034;2023-05-20T03:45:45;9.10;99.90
9437;DHT22;4757;59.334;18.034;2023-05-20T03:48:12;9.20;99.90
9437;DHT22;4757;59.334;18.034;2023-05-20T03:50:39;9.20;99.90
9437;DHT22;4757;59.334;18.034;2023-05-20T03:53:06;9.20;99.90
9437;DHT22;4757;59.334;18.034;2023-05-20T03:55:33;9.30;99.90
9437;DHT22;4757;59.334;18.034;2023-05-20T03:58:01;9.30;99.90
9437;DHT22;4757;59.334;18.034;2023-05-20T04:00:28;9.30;99.90
9437;DHT22;4757;59.334;18.034;2023-05-20T04:03:00;9.30;99.90
9437;DHT22;4757;59.334;18.034;2023-05-20T04:05:27;9.40;99.90
9437;DHT22;4757;59.334;18.034;2023-05-20T04:07:54;9.50;99.90
9437;DHT22;4757;59.334;18.034;2023-05-20T04:10:23;9.60;99.90
9437;DHT22;4757;59.334;18.034;2023-05-20T04:12:50;9.60;99.90
9437;DHT22;4757;59.334;18.034;2023-05-20T04:15:18;9.60;99.90
9437;DHT22;4757;59.334;18.034;2023-05-20T04:17:45;9.80;99.90
9437;DHT22;4757;59.334;18.034;2023-05-20T04:20:14;9.80;99.90
9437;DHT22;4757;59.334;18.034;2023-05-20T04:22:44;9.90;99.90
9437;DHT22;4757;59.334;18.034;2023-05-20T04:25:11;10.00;99.90
9437;DHT22;4757;59.334;18.034;2023-05-20T04:27:39;10.10;99.90
9437;DHT22;4757;59.334;18.034;2023-05-20T04:30:06;10.10;99.90
9437;DHT22;4757;59.334;18.034;2023-05-20T04:32:33;10.20;99.90
9437;DHT22;4757;59.334;18.034;2023-05-20T04:35:01;10.30;99.90
9437;DHT22;4757;59.334;18.034;2023-05-20T04:37:28;10.40;99.90
9437;DHT22;4757;59.334;18.034;2023-05-20T04:39:57;10.50;99.90
9437;DHT22;4757;59.334;18.034;2023-05-20T04:42:24;10.60;99.90
9437;DHT22;4757;59.334;18.034;2023-05-20T04:44:51;10.70;99.90
9437;DHT22;4757;59.334;18.034;2023-05-20T04:47:19;10.80;99.90
9437;DHT22;4757;59.334;18.034;2023-05-20T04:49:46;10.80;99.90
9437;DHT22;4757;59.334;18.034;2023-05-20T04:52:13;10.90;99.90
9437;DHT22;4757;59.334;18.034;2023-05-20T04:54:40;11.00;99.90
9437;DHT22;4757;59.334;18.034;2023-05-20T04:57:07;11.20;99.90
9437;DHT22;4757;59.334;18.034;2023-05-20T04:59:34;11.20;99.90
9437;DHT22;4757;59.334;18.034;2023-05-20T05:02:01;11.40;99.90
9437;DHT22;4757;59.334;18.034;2023-05-20T05:04:28;11.50;99.90
9437;DHT22;4757;59.334;18.034;2023-05-20T05:06:55;11.60;99.90
9437;DHT22;4757;59.334;18.034;2023-05-20T05:09:22;11.70;99.90
9437;DHT22;4757;59.334;18.034;2023-05-20T05:11:49;11.70;99.90
9437;DHT22;4757;59.334;18.034;2023-05-20T05:14:17;11.70;99.90
9437;DHT22;4757;59.334;18.034;2023-05-20T05:16:44;11.90;99.90
9437;DHT22;4757;59.334;18.034;2023-05-20T05:19:11;12.10;99.90
9437;DHT22;4757;59.334;18.034;2023-05-20T05:21:39;12.10;99.90
9437;DHT22;4757;59.334;18.034;2023-05-20T05:24:06;12.10;99.90
9437;DHT22;4757;59.334;18.034;2023-05-20T05:26:34;12.20;99.90
9437;DHT22;4757;59.334;18.034;2023-05-20T05:29:01;12.30;99.90
9437;DHT22;4757;59.334;18.034;2023-05-20T05:31:28;12.40;99.90
9437;DHT22;4757;59.334;18.034;2023-05-20T05:33:55;12.40;99.90
9437;DHT22;4757;59.334;18.034;2023-05-20T05:36:25;12.50;99.90
9437;DHT22;4757;59.334;18.034;2023-05-20T05:38:52;12.60;99.90
9437;DHT22;4757;59.334;18.034;2023-05-20T05:41:19;12.60;99.90
9437;DHT22;4757;59.334;18.034;2023-05-20T05:43:47;12.70;99.90
9437;DHT22;4757;59.334;18.034;2023-05-20T05:46:14;12.80;99.90
9437;DHT22;4757;59.334;18.034;2023-05-20T05:48:41;12.90;99.90
9437;DHT22;4757;59.334;18.034;2023-05-20T05:51:08;13.10;99.90
9437;DHT22;4757;59.334;18.034;2023-05-20T05:53:35;13.20;99.90
9437;DHT22;4757;59.334;18.034;2023-05-20T05:56:03;13.20;99.90
9437;DHT22;4757;59.334;18.034;2023-05-20T05:58:30;13.30;99.90
9437;DHT22;4757;59.334;18.034;2023-05-20T06:00:57;13.50;99.90
9437;DHT22;4757;59.334;18.034;2023-05-20T06:03:24;13.50;99.90
9437;DHT22;4757;59.334;18.034;2023-05-20T06:05:52;13.70;99.90
9437;DHT22;4757;59.334;18.034;2023-05-20T06:08:19;13.70;99.90
9437;DHT22;4757;59.334;18.034;2023-05-20T06:10:47;13.80;99.90
9437;DHT22;4757;59.334;18.034;2023-05-20T06:13:15;13.80;99.90
9437;DHT22;4757;59.334;18.034;2023-05-20T06:15:42;13.90;99.80
9437;DHT22;4757;59.334;18.034;2023-05-20T06:18:12;13.90;99.40
9437;DHT22;4757;59.334;18.034;2023-05-20T06:20:39;14.10;99.30
9437;DHT22;4757;59.334;18.034;2023-05-20T06:23:06;14.20;98.90
9437;DHT22;4757;59.334;18.034;2023-05-20T06:25:33;14.30;99.10
9437;DHT22;4757;59.334;18.034;2023-05-20T06:28:01;14.60;99.00
9437;DHT22;4757;59.334;18.034;2023-05-20T06:30:28;14.60;98.60
9437;DHT22;4757;59.334;18.034;2023-05-20T06:32:55;14.40;98.60
9437;DHT22;4757;59.334;18.034;2023-05-20T06:35:22;14.60;98.70
9437;DHT22;4757;59.334;18.034;2023-05-20T06:37:49;14.70;98.20
9437;DHT22;4757;59.334;18.034;2023-05-20T06:40:16;14.90;98.20
9437;DHT22;4757;59.334;18.034;2023-05-20T06:42:43;15.00;97.90
9437;DHT22;4757;59.334;18.034;2023-05-20T06:45:10;15.50;97.40
9437;DHT22;4757;59.334;18.034;2023-05-20T06:47:38;16.10;96.80
9437;DHT22;4757;59.334;18.034;2023-05-20T06:50:05;17.30;96.20
9437;DHT22;4757;59.334;18.034;2023-05-20T06:52:32;18.20;95.00
9437;DHT22;4757;59.334;18.034;2023-05-20T06:54:59;18.60;94.10
9437;DHT22;4757;59.334;18.034;2023-05-20T06:57:26;17.80;94.30
9437;DHT22;4757;59.334;18.034;2023-05-20T06:59:53;16.80;94.90
9437;DHT22;4757;59.334;18.034;2023-05-20T07:02:21;17.40;94.90
9437;DHT22;4757;59.334;18.034;2023-05-20T07:04:48;17.60;94.40
9437;DHT22;4757;59.334;18.034;2023-05-20T07:07:15;17.60;94.70
9437;DHT22;4757;59.334;18.034;2023-05-20T07:09:43;18.50;94.10
9437;DHT22;4757;59.334;18.034;2023-05-20T07:12:10;18.60;93.50
9437;DHT22;4757;59.334;18.034;2023-05-20T07:14:37;19.10;93.10
9437;DHT22;4757;59.334;18.034;2023-05-20T07:17:05;18.70;92.90
9437;DHT22;4757;59.334;18.034;2023-05-20T07:19:32;18.90;93.30
9437;DHT22;4757;59.334;18.034;2023-05-20T07:21:59;19.30;93.20
9437;DHT22;4757;59.334;18.034;2023-05-20T07:24:26;18.60;92.80
9437;DHT22;4757;59.334;18.034;2023-05-20T07:26:53;18.30;93.50
9437;DHT22;4757;59.334;18.034;2023-05-20T07:29:20;18.60;93.20
9437;DHT22;4757;59.334;18.034;2023-05-20T07:31:47;19.40;92.60
9437;DHT22;4757;59.334;18.034;2023-05-20T07:34:15;19.60;91.80
9437;DHT22;4757;59.334;18.034;2023-05-20T07:36:42;19.10;92.50
9437;DHT22;4757;59.334;18.034;2023-05-20T07:39:09;19.30;92.50
9437;DHT22;4757;59.334;18.034;2023-05-20T07:41:40;20.20;91.40
9437;DHT22;4757;59.334;18.034;2023-05-20T07:44:08;20.90;91.30
9437;DHT22;4757;59.334;18.034;2023-05-20T07:46:37;21.70;90.20
9437;DHT22;4757;59.334;18.034;2023-05-20T07:49:07;21.40;89.70
9437;DHT22;4757;59.334;18.034;2023-05-20T07:51:37;21.90;88.70
9437;DHT22;4757;59.334;18.034;2023-05-20T07:54:05;20.90;88.20
9437;DHT22;4757;59.334;18.034;2023-05-20T07:56:32;20.90;89.70
9437;DHT22;4757;59.334;18.034;2023-05-20T07:58:59;21.40;88.50
9437;DHT22;4757;59.334;18.034;2023-05-20T08:01:26;21.80;88.00
9437;DHT22;4757;59.334;18.034;2023-05-20T08:03:53;22.40;86.90
9437;DHT22;4757;59.334;18.034;2023-05-20T08:06:21;21.10;86.80
9437;DHT22;4757;59.334;18.034;2023-05-20T08:08:50;20.40;87.60
9437;DHT22;4757;59.334;18.034;2023-05-20T08:11:17;19.60;89.60
9437;DHT22;4757;59.334;18.034;2023-05-20T08:13:44;20.20;89.80
9437;DHT22;4757;59.334;18.034;2023-05-20T08:16:11;21.10;87.20
9437;DHT22;4757;59.334;18.034;2023-05-20T08:18:38;20.60;85.30
9437;DHT22;4757;59.334;18.034;2023-05-20T08:21:05;20.40;85.70
9437;DHT22;4757;59.334;18.034;2023-05-20T08:23:36;20.30;85.70
9437;DHT22;4757;59.334;18.034;2023-05-20T08:26:06;20.50;86.70
9437;DHT22;4757;59.334;18.034;2023-05-20T08:28:33;21.60;84.00
9437;DHT22;4757;59.334;18.034;2023-05-20T08:31:00;22.50;82.50
9437;DHT22;4757;59.334;18.034;2023-05-20T08:33:28;22.40;81.20
9437;DHT22;4757;59.334;18.034;2023-05-20T08:35:55;21.70;82.00
9437;DHT22;4757;59.334;18.034;2023-05-20T08:38:22;21.00;84.10
9437;DHT22;4757;59.334;18.034;2023-05-20T08:40:56;21.80;83.10
9437;DHT22;4757;59.334;18.034;2023-05-20T08:43:24;20.50;81.60
9437;DHT22;4757;59.334;18.034;2023-05-20T08:45:52;20.40;81.80
9437;DHT22;4757;59.334;18.034;2023-05-20T08:48:22;21.60;81.30
9437;DHT22;4757;59.334;18.034;2023-05-20T08:50:51;21.70;79.50
9437;DHT22;4757;59.334;18.034;2023-05-20T08:53:19;22.00;79.40
9437;DHT22;4757;59.334;18.034;2023-05-20T08:55:55;23.00;78.40
9437;DHT22;4757;59.334;18.034;2023-05-20T08:58:30;22.90;77.40
9437;DHT22;4757;59.334;18.034;2023-05-20T09:00:57;22.20;75.40
9437;DHT22;4757;59.334;18.034;2023-05-20T09:03:25;21.60;76.50
9437;DHT22;4757;59.334;18.034;2023-05-20T09:05:52;21.50;73.60
9437;DHT22;4757;59.334;18.034;2023-05-20T09:08:23;21.40;74.70
9437;DHT22;4757;59.334;18.034;2023-05-20T09:10:52;21.40;72.80
9437;DHT22;4757;59.334;18.034;2023-05-20T09:13:20;21.70;75.10
9437;DHT22;4757;59.334;18.034;2023-05-20T09:15:49;21.40;73.80
9437;DHT22;4757;59.334;18.034;2023-05-20T09:18:17;21.80;72.20
9437;DHT22;4757;59.334;18.034;2023-05-20T09:20:47;21.40;71.70
9437;DHT22;4757;59.334;18.034;2023-05-20T09:23:18;21.10;71.40
9437;DHT22;4757;59.334;18.034;2023-05-20T09:25:51;20.70;71.70
9437;DHT22;4757;59.334;18.034;2023-05-20T09:28:19;20.90;71.30
9437;DHT22;4757;59.334;18.034;2023-05-20T09:30:48;21.10;71.40
9437;DHT22;4757;59.334;18.034;2023-05-20T09:33:16;21.90;71.00
9437;DHT22;4757;59.334;18.034;2023-05-20T09:35:43;22.90;69.50
9437;DHT22;4757;59.334;18.034;2023-05-20T09:38:11;22.40;68.40
9437;DHT22;4757;59.334;18.034;2023-05-20T09:40:41;22.30;69.70
9437;DHT22;4757;59.334;18.034;2023-05-20T09:43:09;21.50;69.50
9437;DHT22;4757;59.334;18.034;2023-05-20T09:45:37;21.80;69.40
9437;DHT22;4757;59.334;18.034;2023-05-20T09:48:07;21.60;69.50
9437;DHT22;4757;59.334;18.034;2023-05-20T09:50:36;21.00;70.90
9437;DHT22;4757;59.334;18.034;2023-05-20T09:53:04;20.40;70.80
9437;DHT22;4757;59.334;18.034;2023-05-20T09:55:32;20.40;69.80
9437;DHT22;4757;59.334;18.034;2023-05-20T09:58:01;21.10;70.80
9437;DHT22;4757;59.334;18.034;2023-05-20T10:00:29;21.00;69.70
9437;DHT22;4757;59.334;18.034;2023-05-20T10:02:57;20.80;69.10
9437;DHT22;4757;59.334;18.034;2023-05-20T10:05:49;20.70;71.00
9437;DHT22;4757;59.334;18.034;2023-05-20T10:11:15;20.90;71.70
9437;DHT22;4757;59.334;18.034;2023-05-20T10:16:47;21.10;72.40
9437;DHT22;4757;59.334;18.034;2023-05-20T10:19:29;21.20;72.80
9437;DHT22;4757;59.334;18.034;2023-05-20T10:22:03;21.20;71.40
9437;DHT22;4757;59.334;18.034;2023-05-20T10:24:35;21.70;70.60
9437;DHT22;4757;59.334;18.034;2023-05-20T10:27:07;21.10;72.40
9437;DHT22;4757;59.334;18.034;2023-05-20T10:29:44;20.60;75.40
9437;DHT22;4757;59.334;18.034;2023-05-20T10:32:28;21.10;74.00
9437;DHT22;4757;59.334;18.034;2023-05-20T10:35:03;20.90;72.80
9437;DHT22;4757;59.334;18.034;2023-05-20T10:37:33;20.80;74.20
9437;DHT22;4757;59.334;18.034;2023-05-20T10:40:17;21.20;74.90
9437;DHT22;4757;59.334;18.034;2023-05-20T10:42:48;21.60;73.70
9437;DHT22;4757;59.334;18.034;2023-05-20T10:45:26;21.50;73.40
9437;DHT22;4757;59.334;18.034;2023-05-20T10:47:54;22.00;74.40
9437;DHT22;4757;59.334;18.034;2023-05-20T10:50:33;21.90;73.70
9437;DHT22;4757;59.334;18.034;2023-05-20T10:53:05;21.30;73.80
9437;DHT22;4757;59.334;18.034;2023-05-20T10:55:48;21.10;75.40
9437;DHT22;4757;59.334;18.034;2023-05-20T10:58:17;21.10;75.60
9437;DHT22;4757;59.334;18.034;2023-05-20T11:00:47;20.80;74.80
9437;DHT22;4757;59.334;18.034;2023-05-20T11:03:16;21.30;75.30
9437;DHT22;4757;59.334;18.034;2023-05-20T11:05:44;21.70;74.10
9437;DHT22;4757;59.334;18.034;2023-05-20T11:08:15;21.00;74.40
9437;DHT22;4757;59.334;18.034;2023-05-20T11:10:57;20.90;74.70
9437;DHT22;4757;59.334;18.034;2023-05-20T11:13:25;21.60;74.80
9437;DHT22;4757;59.334;18.034;2023-05-20T11:15:52;22.30;74.40
9437;DHT22;4757;59.334;18.034;2023-05-20T11:18:20;22.40;74.60
9437;DHT22;4757;59.334;18.034;2023-05-20T11:20:47;22.20;74.60
9437;DHT22;4757;59.334;18.034;2023-05-20T11:23:14;22.40;74.00
9437;DHT22;4757;59.334;18.034;2023-05-20T11:25:41;22.00;73.80
9437;DHT22;4757;59.334;18.034;2023-05-20T11:28:12;21.90;73.10
9437;DHT22;4757;59.334;18.034;2023-05-20T11:30:41;21.90;71.90
9437;DHT22;4757;59.334;18.034;2023-05-20T11:33:11;21.20;71.50
9437;DHT22;4757;59.334;18.034;2023-05-20T11:35:53;21.00;71.20
9437;DHT22;4757;59.334;18.034;2023-05-20T11:38:20;21.10;70.10
9437;DHT22;4757;59.334;18.034;2023-05-20T11:40:54;22.00;70.50
9437;DHT22;4757;59.334;18.034;2023-05-20T11:43:22;22.50;69.70
9437;DHT22;4757;59.334;18.034;2023-05-20T11:45:56;22.10;67.80
9437;DHT22;4757;59.334;18.034;2023-05-20T11:48:26;21.80;68.60
9437;DHT22;4757;59.334;18.034;2023-05-20T11:50:55;22.00;68.00
9437;DHT22;4757;59.334;18.034;2023-05-20T11:53:23;22.00;67.70
9437;DHT22;4757;59.334;18.034;2023-05-20T11:55:54;22.00;66.50
9437;DHT22;4757;59.334;18.034;2023-05-20T11:58:29;21.20;66.30
9437;DHT22;4757;59.334;18.034;2023-05-20T12:00:57;20.90;67.00
9437;DHT22;4757;59.334;18.034;2023-05-20T12:03:39;21.70;66.90
9437;DHT22;4757;59.334;18.034;2023-05-20T12:06:06;21.50;64.70
9437;DHT22;4757;59.334;18.034;2023-05-20T12:08:34;21.60;65.30
9437;DHT22;4757;59.334;18.034;2023-05-20T12:11:01;22.00;66.10
9437;DHT22;4757;59.334;18.034;2023-05-20T12:13:28;22.30;67.90
9437;DHT22;4757;59.334;18.034;2023-05-20T12:15:55;21.80;68.10
9437;DHT22;4757;59.334;18.034;2023-05-20T12:18:22;21.90;69.10
9437;DHT22;4757;59.334;18.034;2023-05-20T12:20:49;21.80;67.00
9437;DHT22;4757;59.334;18.034;2023-05-20T12:23:16;21.40;67.60
9437;DHT22;4757;59.334;18.034;2023-05-20T12:25:43;21.10;68.50
9437;DHT22;4757;59.334;18.034;2023-05-20T12:28:13;21.00;69.20
9437;DHT22;4757;59.334;18.034;2023-05-20T12:30:40;20.90;71.20
9437;DHT22;4757;59.334;18.034;2023-05-20T12:33:07;19.90;74.80
9437;DHT22;4757;59.334;18.034;2023-05-20T12:35:37;19.90;75.70
9437;DHT22;4757;59.334;18.034;2023-05-20T12:38:05;19.60;77.50
9437;DHT22;4757;59.334;18.034;2023-05-20T12:40:33;19.90;78.80
9437;DHT22;4757;59.334;18.034;2023-05-20T12:43:02;20.70;78.20
9437;DHT22;4757;59.334;18.034;2023-05-20T12:45:30;20.80;78.20
9437;DHT22;4757;59.334;18.034;2023-05-20T12:47:57;20.30;78.60
9437;DHT22;4757;59.334;18.034;2023-05-20T12:50:26;19.90;79.10
9437;DHT22;4757;59.334;18.034;2023-05-20T12:52:53;20.60;79.70
9437;DHT22;4757;59.334;18.034;2023-05-20T12:55:20;20.80;78.50
9437;DHT22;4757;59.334;18.034;2023-05-20T12:57:47;20.90;78.20
9437;DHT22;4757;59.334;18.034;2023-05-20T13:00:16;20.50;79.20
9437;DHT22;4757;59.334;18.034;2023-05-20T13:02:43;20.90;79.20
9437;DHT22;4757;59.334;18.034;2023-05-20T13:05:10;20.90;78.50
9437;DHT22;4757;59.334;18.034;2023-05-20T13:07:38;20.60;78.20
9437;DHT22;4757;59.334;18.034;2023-05-20T13:10:06;20.80;77.50
9437;DHT22;4757;59.334;18.034;2023-05-20T13:12:34;21.00;76.80
9437;DHT22;4757;59.334;18.034;2023-05-20T13:15:02;20.40;77.70
9437;DHT22;4757;59.334;18.034;2023-05-20T13:17:29;20.50;79.10
9437;DHT22;4757;59.334;18.034;2023-05-20T13:19:56;20.50;77.00
9437;DHT22;4757;59.334;18.034;2023-05-20T13:22:24;20.30;75.60
9437;DHT22;4757;59.334;18.034;2023-05-20T13:24:51;20.60;73.80
9437;DHT22;4757;59.334;18.034;2023-05-20T13:27:18;20.40;72.80
9437;DHT22;4757;59.334;18.034;2023-05-20T13:29:45;19.80;71.90
9437;DHT22;4757;59.334;18.034;2023-05-20T13:32:12;20.00;70.80
9437;DHT22;4757;59.334;18.034;2023-05-20T13:34:39;20.10;71.00
9437;DHT22;4757;59.334;18.034;2023-05-20T13:37:07;20.50;71.60
9437;DHT22;4757;59.334;18.034;2023-05-20T13:39:34;20.70;70.90
9437;DHT22;4757;59.334;18.034;2023-05-20T13:42:02;20.30;69.10
9437;DHT22;4757;59.334;18.034;2023-05-20T13:44:30;20.70;70.90
9437;DHT22;4757;59.334;18.034;2023-05-20T13:46:58;20.20;70.80
9437;DHT22;4757;59.334;18.034;2023-05-20T13:49:25;19.70;73.80
9437;DHT22;4757;59.334;18.034;2023-05-20T13:51:52;19.50;75.80
9437;DHT22;4757;59.334;18.034;2023-05-20T13:54:21;19.50;77.20
9437;DHT22;4757;59.334;18.034;2023-05-20T13:56:48;19.40;79.40
9437;DHT22;4757;59.334;18.034;2023-05-20T13:59:15;19.40;81.30
9437;DHT22;4757;59.334;18.034;2023-05-20T14:01:42;19.20;83.80
9437;DHT22;4757;59.334;18.034;2023-05-20T14:04:11;19.70;83.60
9437;DHT22;4757;59.334;18.034;2023-05-20T14:06:39;20.20;82.40
9437;DHT22;4757;59.334;18.034;2023-05-20T14:09:06;20.40;80.90
9437;DHT22;4757;59.334;18.034;2023-05-20T14:11:37;21.20;80.10
9437;DHT22;4757;59.334;18.034;2023-05-20T14:14:04;20.30;80.10
9437;DHT22;4757;59.334;18.034;2023-05-20T14:16:31;21.10;79.80
9437;DHT22;4757;59.334;18.034;2023-05-20T14:19:00;21.30;77.80
9437;DHT22;4757;59.334;18.034;2023-05-20T14:21:27;20.90;80.10
9437;DHT22;4757;59.334;18.034;2023-05-20T14:23:54;21.10;79.80
9437;DHT22;4757;59.334;18.034;2023-05-20T14:26:21;21.10;79.80
9437;DHT22;4757;59.334;18.034;2023-05-20T14:28:49;21.80;78.20
9437;DHT22;4757;59.334;18.034;2023-05-20T14:31:16;21.80;78.20
9437;DHT22;4757;59.334;18.034;2023-05-20T14:33:43;22.10;78.70
9437;DHT22;4757;59.334;18.034;2023-05-20T14:36:10;21.90;77.50
9437;DHT22;4757;59.334;18.034;2023-05-20T14:38:37;22.20;77.70
9437;DHT22;4757;59.334;18.034;2023-05-20T14:41:04;22.50;75.40
9437;DHT22;4757;59.334;18.034;2023-05-20T14:43:31;22.40;74.50
9437;DHT22;4757;59.334;18.034;2023-05-20T14:46:01;22.40;72.80
9437;DHT22;4757;59.334;18.034;2023-05-20T14:48:31;22.50;72.90
9437;DHT22;4757;59.334;18.034;2023-05-20T14:50:58;22.30;72.70
9437;DHT22;4757;59.334;18.034;2023-05-20T14:53:25;21.80;73.10
9437;DHT22;4757;59.334;18.034;2023-05-20T14:55:52;21.30;73.60
9437;DHT22;4757;59.334;18.034;2023-05-20T14:58:19;20.90;74.70
9437;DHT22;4757;59.334;18.034;2023-05-20T15:00:46;21.50;73.80
9437;DHT22;4757;59.334;18.034;2023-05-20T15:03:13;21.10;73.90
9437;DHT22;4757;59.334;18.034;2023-05-20T15:05:41;20.70;74.10
9437;DHT22;4757;59.334;18.034;2023-05-20T15:08:08;20.60;74.90
9437;DHT22;4757;59.334;18.034;2023-05-20T15:10:35;20.30;74.00
9437;DHT22;4757;59.334;18.034;2023-05-20T15:13:03;20.30;74.50
9437;DHT22;4757;59.334;18.034;2023-05-20T15:15:30;20.40;75.10
9437;DHT22;4757;59.334;18.034;2023-05-20T15:17:57;20.40;75.90
9437;DHT22;4757;59.334;18.034;2023-05-20T15:20:25;20.00;76.20
9437;DHT22;4757;59.334;18.034;2023-05-20T15:22:52;20.10;76.90
9437;DHT22;4757;59.334;18.034;2023-05-20T15:25:19;20.50;77.60
9437;DHT22;4757;59.334;18.034;2023-05-20T15:27:47;20.70;76.60
9437;DHT22;4757;59.334;18.034;2023-05-20T15:30:14;20.50;76.80
9437;DHT22;4757;59.334;18.034;2023-05-20T15:32:42;21.00;76.30
9437;DHT22;4757;59.334;18.034;2023-05-20T15:35:10;21.30;75.80
9437;DHT22;4757;59.334;18.034;2023-05-20T15:37:37;21.00;74.20
9437;DHT22;4757;59.334;18.034;2023-05-20T15:40:04;20.30;73.80
9437;DHT22;4757;59.334;18.034;2023-05-20T15:42:32;20.20;75.20
9437;DHT22;4757;59.334;18.034;2023-05-20T15:45:01;20.50;75.30
9437;DHT22;4757;59.334;18.034;2023-05-20T15:47:28;20.30;75.80
9437;DHT22;4757;59.334;18.034;2023-05-20T15:49:55;20.40;75.80
9437;DHT22;4757;59.334;18.034;2023-05-20T15:52:23;19.80;76.10
9437;DHT22;4757;59.334;18.034;2023-05-20T15:54:50;19.60;76.50
9437;DHT22;4757;59.334;18.034;2023-05-20T15:57:17;19.80;76.80
9437;DHT22;4757;59.334;18.034;2023-05-20T15:59:44;19.90;76.90
9437;DHT22;4757;59.334;18.034;2023-05-20T16:02:11;19.80;78.50